Time;durP1;ratioP1;P1;durP2;ratioP2;P2;SDS_P1;SDS_P2;PMS_P1;PMS_P2;Temp;Humidity;BMP_temperature;BMP_pressure;BME280_temperature;BME280_humidity;BME280_pressure;Samples;Min_cycle;Max_cycle;Signal;HPM_P1;HPM_P2
2023/10/16 00:01:38;;;;;;;1.90;1.33;;;8.40;99.90;;;8.55;nan;101387.34;4924856;29;20658;-67
2023/10/16 00:04:06;;;;;;;1.23;1.13;;;8.40;99.90;;;8.57;nan;101388.09;4908767;29;21506;-67
2023/10/16 00:06:34;;;;;;;0.90;0.90;;;8.40;99.90;;;8.59;nan;101382.81;4913284;29;21228;-66
2023/10/16 00:09:14;;;;;;;1.20;1.10;;;8.40;99.90;;;8.57;nan;101376.84;4910355;29;20661;-67
2023/10/16 00:11:42;;;;;;;0.97;0.87;;;8.40;99.90;;;8.58;nan;101383.75;4910955;29;20649;-67
2023/10/16 00:14:26;;;;;;;0.90;0.90;;;8.40;99.90;;;8.58;nan;101383.75;4924054;29;20674;-67
2023/10/16 00:16:53;;;;;;;0.80;0.80;;;8.40;99.90;;;8.56;nan;101388.19;4920487;29;20641;-67
2023/10/16 00:19:20;;;;;;;0.60;0.50;;;8.40;99.90;;;8.56;nan;101394.19;4925698;29;20688;-67
2023/10/16 00:21:47;;;;;;;0.70;0.70;;;8.40;99.90;;;8.52;nan;101392.69;4914248;29;20630;-67
2023/10/16 00:24:15;;;;;;;1.10;0.93;;;8.40;99.90;;;8.48;nan;101383.34;4922486;29;20653;-67
2023/10/16 00:26:49;;;;;;;0.70;0.70;;;8.40;99.90;;;8.46;nan;101382.59;4913532;29;20657;-67
2023/10/16 00:29:19;;;;;;;1.20;1.00;;;8.30;99.90;;;8.48;nan;101372.97;4913908;29;20674;-66
2023/10/16 00:31:51;;;;;;;0.90;0.70;;;8.30;99.90;;;8.47;nan;101384.28;4910379;29;21020;-66
2023/10/16 00:34:21;;;;;;;0.70;0.70;;;8.30;99.90;;;8.46;nan;101379.16;4911418;29;20707;-67
2023/10/16 00:36:55;;;;;;;0.57;0.57;;;8.30;99.90;;;8.50;nan;101381.53;4913351;29;20626;-67
2023/10/16 00:39:28;;;;;;;0.80;0.80;;;8.30;99.90;;;8.48;nan;101378.16;4913003;29;20715;-66
2023/10/16 00:41:57;;;;;;;1.17;0.90;;;8.30;99.90;;;8.49;nan;101379.84;4912286;29;20638;-67
2023/10/16 00:44:33;;;;;;;0.60;0.60;;;8.40;99.90;;;8.52;nan;101378.84;4913730;29;21200;-67
2023/10/16 00:47:05;;;;;;;0.77;0.77;;;8.30;99.90;;;8.46;nan;101379.16;4912600;29;20642;-67
2023/10/16 00:49:36;;;;;;;0.90;0.90;;;8.30;99.90;;;8.34;nan;101382.38;4913034;29;20674;-67
2023/10/16 00:52:04;;;;;;;3.27;0.90;;;8.20;99.90;;;8.24;nan;101368.16;4909176;29;21131;-66
2023/10/16 00:54:38;;;;;;;1.00;1.00;;;8.10;99.90;;;8.18;nan;101363.22;4911201;29;20650;-66
2023/10/16 00:57:08;;;;;;;0.90;0.70;;;8.00;99.90;;;8.12;nan;101372.19;4910394;29;20649;-66
2023/10/16 00:59:39;;;;;;;0.77;0.77;;;8.00;99.90;;;8.06;nan;101363.84;4911185;29;20661;-67
2023/10/16 01:04:40;;;;;;;0.80;0.80;;;7.90;99.90;;;7.89;nan;101354.31;4926021;29;20634;-67
2023/10/16 01:07:14;;;;;;;1.30;1.20;;;7.80;99.90;;;7.86;nan;101356.22;4908868;29;20653;-67
2023/10/16 01:09:42;;;;;;;1.13;1.03;;;7.70;99.90;;;7.79;nan;101346.09;4903728;29;21258;-67
2023/10/16 01:12:12;;;;;;;1.10;1.10;;;7.70;99.90;;;7.76;nan;101348.88;4915040;29;20648;-66
2023/10/16 01:14:40;;;;;;;1.10;1.10;;;7.60;99.90;;;7.71;nan;101342.19;4909060;29;20634;-67
2023/10/16 01:17:08;;;;;;;1.50;1.40;;;7.60;99.90;;;7.70;nan;101338.78;4910878;29;20646;-67
2023/10/16 01:19:43;;;;;;;1.30;1.30;;;7.60;99.90;;;7.73;nan;101333.41;4928443;29;20662;-67
2023/10/16 01:22:11;;;;;;;1.37;1.30;;;7.60;99.90;;;7.72;nan;101326.56;4925999;29;20657;-67
2023/10/16 01:24:43;;;;;;;1.97;1.87;;;7.60;99.90;;;7.75;nan;101328.16;4913516;29;20653;-66
2023/10/16 01:27:26;;;;;;;1.30;1.20;;;7.60;99.90;;;7.78;nan;101328.84;4910024;29;20721;-66
2023/10/16 01:29:54;;;;;;;2.00;1.27;;;7.70;99.90;;;7.83;nan;101328.63;4909219;29;21040;-65
2023/10/16 01:32:21;;;;;;;1.40;1.30;;;7.70;99.90;;;7.86;nan;101319.84;4911586;29;20652;-65
2023/10/16 01:34:50;;;;;;;1.23;1.17;;;7.70;99.90;;;7.84;nan;101320.75;4910146;29;20706;-67
2023/10/16 01:37:18;;;;;;;1.20;1.20;;;7.70;99.90;;;7.83;nan;101316.50;4905563;29;20651;-66
2023/10/16 01:39:48;;;;;;;0.83;0.80;;;7.70;99.90;;;7.82;nan;101320.00;4909280;29;20670;-65
2023/10/16 01:42:18;;;;;;;1.33;1.23;;;7.70;99.90;;;7.77;nan;101318.53;4907344;29;20648;-67
2023/10/16 01:44:46;;;;;;;1.17;0.90;;;7.70;99.90;;;7.72;nan;101316.16;4924928;29;20630;-67
2023/10/16 01:47:15;;;;;;;1.00;1.00;;;7.60;99.90;;;7.68;nan;101319.00;4910966;29;20645;-67
2023/10/16 01:49:43;;;;;;;0.90;0.90;;;7.50;99.90;;;7.65;nan;101319.97;4906433;29;20666;-66
2023/10/16 01:52:14;;;;;;;1.43;0.90;;;7.50;99.90;;;7.64;nan;101327.84;4899721;29;20779;-67
2023/10/16 01:54:47;;;;;;;0.50;0.50;;;7.50;99.90;;;7.61;nan;101330.59;4911095;29;21267;-66
2023/10/16 01:57:15;;;;;;;0.47;0.47;;;7.50;99.90;;;7.61;nan;101330.59;4905539;29;20655;-67
2023/10/16 01:59:49;;;;;;;0.80;0.80;;;7.50;99.90;;;7.55;nan;101325.69;4908539;29;20670;-67
2023/10/16 02:02:17;;;;;;;0.73;0.67;;;7.50;99.90;;;7.51;nan;101325.00;4907261;29;20649;-67
2023/10/16 02:04:45;;;;;;;0.73;0.73;;;7.40;99.90;;;7.48;nan;101325.16;4911890;29;20650;-67
2023/10/16 02:07:12;;;;;;;1.10;1.00;;;7.40;99.90;;;7.41;nan;101326.34;4911244;29;20642;-67
2023/10/16 02:09:40;;;;;;;1.90;0.70;;;7.30;99.90;;;7.37;nan;101327.41;4910239;29;20696;-67
2023/10/16 02:12:14;;;;;;;0.83;0.83;;;7.30;99.90;;;7.31;nan;101325.09;4914499;29;20630;-67
2023/10/16 02:14:43;;;;;;;0.80;0.80;;;7.20;99.90;;;7.28;nan;101321.81;4905026;29;20669;-66
2023/10/16 02:17:21;;;;;;;1.37;1.10;;;7.20;99.90;;;7.26;nan;101332.25;4910815;29;20645;-67
2023/10/16 02:19:50;;;;;;;1.10;1.10;;;7.20;99.90;;;7.20;nan;101324.78;4925716;29;20716;-67
2023/10/16 02:22:22;;;;;;;1.10;1.10;;;7.10;99.90;;;7.18;nan;101326.59;4910836;29;20672;-67
2023/10/16 02:24:49;;;;;;;1.60;1.07;;;7.10;99.90;;;7.20;nan;101326.53;4912251;29;20645;-67
2023/10/16 02:27:18;;;;;;;1.30;1.20;;;7.10;99.90;;;7.20;nan;101326.53;4911614;29;20633;-67
2023/10/16 02:29:51;;;;;;;1.43;1.00;;;7.10;99.90;;;7.17;nan;101330.13;4910470;29;20677;-67
2023/10/16 02:32:22;;;;;;;1.37;1.37;;;7.10;99.90;;;7.13;nan;101327.72;4913964;29;20642;-67
2023/10/16 02:34:50;;;;;;;1.07;1.00;;;7.00;99.90;;;7.11;nan;101324.38;4911041;29;20674;-67
2023/10/16 02:37:17;;;;;;;1.10;0.83;;;7.00;99.90;;;7.07;nan;101321.91;4913005;29;20670;-67
2023/10/16 02:39:50;;;;;;;0.83;0.83;;;7.00;99.90;;;7.11;nan;101320.03;4910988;29;20675;-67
2023/10/16 02:42:19;;;;;;;0.80;0.80;;;7.00;99.90;;;7.10;nan;101320.09;4912752;29;20640;-67
2023/10/16 02:44:46;;;;;;;1.20;1.00;;;7.00;99.90;;;7.13;nan;101317.34;4906142;29;20651;-66
2023/10/16 02:47:19;;;;;;;1.00;0.60;;;7.00;99.90;;;7.15;nan;101307.75;4905291;29;20649;-67
2023/10/16 02:49:48;;;;;;;0.93;0.93;;;7.00;99.90;;;7.13;nan;101299.19;4910358;29;20680;-67
2023/10/16 02:52:17;;;;;;;0.90;0.90;;;7.00;99.90;;;7.09;nan;101300.25;4905476;29;20670;-67
2023/10/16 02:54:46;;;;;;;1.10;1.10;;;6.90;99.90;;;7.05;nan;101307.31;4909544;29;21313;-67
2023/10/16 02:57:14;;;;;;;0.93;0.90;;;6.90;99.90;;;7.07;nan;101316.72;4925471;29;20649;-65
2023/10/16 02:59:45;;;;;;;0.70;0.70;;;6.90;99.90;;;7.08;nan;101322.75;4903411;29;20662;-66
2023/10/16 03:02:22;;;;;;;0.70;0.67;;;7.00;99.90;;;7.00;nan;101323.13;4907397;29;20648;-67
2023/10/16 03:04:51;;;;;;;0.90;0.90;;;6.90;99.90;;;6.86;nan;101315.13;4906709;29;20650;-67
2023/10/16 03:07:20;;;;;;;1.35;1.25;;;6.70;99.90;;;6.79;nan;101305.91;4910636;29;20646;-67
2023/10/16 03:09:50;;;;;;;1.60;1.50;;;6.60;99.90;;;6.79;nan;101316.28;4909763;29;20229;-66
2023/10/16 03:12:19;;;;;;;1.03;1.00;;;6.70;99.90;;;6.80;nan;101317.16;4923506;29;21224;-66
2023/10/16 03:14:56;;;;;;;0.90;0.90;;;6.70;99.90;;;6.80;nan;101310.22;4912517;29;20670;-67
2023/10/16 03:17:34;;;;;;;0.80;0.73;;;6.70;99.90;;;6.78;nan;101306.84;4910879;29;20701;-66
2023/10/16 03:20:08;;;;;;;1.43;1.33;;;6.60;99.90;;;6.79;nan;101308.50;4910931;29;20664;-67
2023/10/16 03:22:35;;;;;;;1.30;1.20;;;6.70;99.90;;;6.83;nan;101307.50;4910927;29;21271;-66
2023/10/16 03:25:12;;;;;;;0.90;0.90;;;6.70;99.90;;;6.81;nan;101311.06;4910130;29;20649;-66
2023/10/16 03:27:42;;;;;;;1.00;0.90;;;6.70;99.90;;;6.77;nan;101299.97;4913656;29;20676;-67
2023/10/16 03:30:10;;;;;;;1.90;1.07;;;6.70;99.90;;;6.76;nan;101305.22;4911980;29;20641;-66
2023/10/16 03:32:37;;;;;;;1.47;1.03;;;6.60;99.90;;;6.77;nan;101306.94;4911674;29;20674;-67
2023/10/16 03:35:08;;;;;;;1.10;1.10;;;6.60;99.90;;;6.80;nan;101296.41;4906829;29;20725;-66
2023/10/16 03:37:35;;;;;;;1.33;1.13;;;6.70;99.90;;;6.83;nan;101304.06;4913667;29;20651;-66
2023/10/16 03:40:11;;;;;;;2.40;1.07;;;6.70;99.90;;;6.84;nan;101305.72;4914759;29;21096;-66
2023/10/16 03:42:40;;;;;;;0.88;0.88;;;6.70;99.90;;;6.88;nan;101300.31;4908888;29;20676;-65
2023/10/16 03:45:08;;;;;;;1.47;1.37;;;6.70;99.90;;;6.93;nan;101307.91;4919032;29;20206;-65
2023/10/16 03:47:35;;;;;;;0.80;0.80;;;6.80;99.90;;;6.94;nan;101304.41;4914946;29;20634;-66
2023/10/16 03:50:03;;;;;;;1.23;1.13;;;6.80;99.90;;;6.94;nan;101309.59;4930955;29;20673;-67
2023/10/16 03:52:30;;;;;;;1.53;1.30;;;6.80;99.90;;;6.91;nan;101307.97;4914553;29;20654;-65
2023/10/16 03:55:10;;;;;;;1.67;1.30;;;6.80;99.90;;;6.87;nan;101303.84;4916375;29;21206;-67
2023/10/16 03:57:39;;;;;;;0.90;0.90;;;6.80;99.90;;;6.85;nan;101310.00;4909342;29;20650;-66
2023/10/16 04:00:15;;;;;;;0.80;0.80;;;6.70;99.90;;;6.83;nan;101314.44;4914846;29;20641;-66
2023/10/16 04:02:42;;;;;;;1.80;1.20;;;6.70;99.90;;;6.79;nan;101310.28;4915146;29;20637;-67
2023/10/16 04:05:27;;;;;;;0.83;0.80;;;6.70;99.90;;;6.78;nan;101309.44;4915332;29;20221;-66
2023/10/16 04:07:54;;;;;;;1.13;1.00;;;6.70;99.90;;;6.76;nan;101313.00;4919342;29;20638;-67
2023/10/16 04:10:30;;;;;;;0.90;0.90;;;6.60;99.90;;;6.74;nan;101304.47;4909993;29;20653;-66
2023/10/16 04:12:57;;;;;;;1.10;1.00;;;6.60;99.90;;;6.70;nan;101308.97;4917634;29;21196;-65
2023/10/16 04:23:54;;;;;;;1.23;1.23;;;6.50;99.90;;;6.55;nan;101306.19;4898726;29;20213;-67
2023/10/16 04:31:45;;;;;;;1.10;1.10;;;6.40;99.90;;;6.53;nan;101297.66;4911891;29;20709;-66
2023/10/16 04:37:24;;;;;;;1.30;1.30;;;6.40;99.90;;;6.47;nan;101296.19;4909719;29;20214;-65
2023/10/16 04:53:08;;;;;;;1.60;1.50;;;6.30;99.90;;;6.37;nan;101287.13;4913196;29;20686;-65
2023/10/16 05:06:27;;;;;;;1.43;1.33;;;6.20;99.90;;;6.29;nan;101289.19;4910162;29;20642;-66
2023/10/16 05:17:06;;;;;;;1.63;1.40;;;6.10;99.90;;;6.12;nan;101268.38;4911426;29;20203;-65
2023/10/16 05:22:03;;;;;;;1.05;1.05;;;6.10;99.90;;;6.24;nan;101279.03;4909941;29;20680;-66
2023/10/16 06:14:21;;;;;;;2.00;1.90;;;6.20;99.90;;;6.45;nan;101291.97;4896173;29;20234;-67
2023/10/16 06:16:53;;;;;;;2.67;2.15;;;6.30;99.90;;;6.50;nan;101301.22;4913999;29;20209;-65
2023/10/16 06:19:24;;;;;;;2.17;2.07;;;6.40;99.90;;;6.62;nan;101300.66;4909861;29;20230;-65
2023/10/16 06:22:06;;;;;;;3.20;2.13;;;6.50;99.90;;;6.71;nan;101297.66;4910455;29;20650;-65
2023/10/16 06:24:35;;;;;;;3.43;1.30;;;6.60;99.90;;;6.81;nan;101290.31;4908044;29;20783;-66
2023/10/16 06:27:10;;;;;;;3.20;2.23;;;6.60;99.90;;;6.88;nan;101294.28;4914794;29;20642;-66
2023/10/16 06:29:50;;;;;;;3.33;2.80;;;6.70;99.90;;;6.97;nan;101291.28;4912441;29;20649;-66
2023/10/16 06:32:20;;;;;;;13.90;6.90;;;6.80;99.90;;;7.19;nan;101281.56;4904718;29;20647;-66
2023/10/16 06:35:00;;;;;;;13.90;8.47;;;7.00;99.90;;;7.49;nan;101285.28;4921935;29;20675;-66
2023/10/16 06:37:31;;;;;;;6.47;4.50;;;7.20;99.90;;;7.94;nan;101289.13;4926940;29;20668;-66
2023/10/16 06:40:01;;;;;;;6.30;4.10;;;7.60;99.90;;;8.39;nan;101284.19;4909732;29;20676;-67
2023/10/16 06:42:28;;;;;;;4.67;3.20;;;8.00;99.90;;;8.87;nan;101286.75;4911251;29;20642;-66
2023/10/16 06:45:03;;;;;;;4.17;3.10;;;8.50;99.90;;;9.21;nan;101286.56;4911764;29;20630;-65
2023/10/16 06:47:36;;;;;;;2.43;2.20;;;8.90;99.90;;;9.56;nan;101286.34;4912221;29;20641;-66
2023/10/16 06:50:35;;;;;;;3.40;3.10;;;9.30;99.90;;;9.87;nan;101287.09;4910434;29;20674;-65
2023/10/16 06:53:01;;;;;;;2.57;2.40;;;9.60;99.90;;;10.33;nan;101298.25;4906780;29;20673;-64
2023/10/16 06:55:28;;;;;;;2.17;1.90;;;10.00;99.90;;;10.66;nan;101293.59;4909736;29;20676;-65
2023/10/16 06:57:56;;;;;;;2.37;2.10;;;10.40;99.90;;;11.08;nan;101287.44;4918640;29;20660;-67
2023/10/16 07:00:27;;;;;;;2.50;2.30;;;10.80;99.90;;;11.60;nan;101292.78;4913318;29;20660;-67
2023/10/16 07:02:56;;;;;;;2.20;2.00;;;11.30;99.90;;;12.10;nan;101299.88;4909870;29;20639;-68
2023/10/16 07:05:24;;;;;;;1.30;1.20;;;11.90;99.90;;;12.41;nan;101297.66;4910183;29;20646;-66
2023/10/16 07:07:56;;;;;;;1.40;1.40;;;12.30;99.90;;;12.81;nan;101295.75;4910461;29;20642;-65
2023/10/16 07:10:28;;;;;;;1.20;1.20;;;12.70;99.90;;;13.17;nan;101293.16;4915515;29;20637;-66
2023/10/16 07:13:02;;;;;;;2.00;1.90;;;13.10;99.90;;;13.83;nan;101297.84;4913998;29;20646;-67
2023/10/16 07:15:30;;;;;;;2.07;1.97;;;13.70;99.90;;;14.80;nan;101303.44;4929306;29;20669;-67
2023/10/16 07:18:05;;;;;;;1.87;1.77;;;14.70;99.90;;;15.64;nan;101300.16;4916006;29;20629;-67
2023/10/16 07:20:35;;;;;;;2.40;2.20;;;15.50;99.40;;;16.24;nan;101308.19;4911362;29;20649;-65
2023/10/16 07:23:10;;;;;;;2.90;2.33;;;16.20;97.80;;;16.70;nan;101303.28;4912868;29;20641;-67
2023/10/16 07:25:54;;;;;;;2.67;2.47;;;16.80;96.20;;;16.93;nan;101310.03;4911139;29;20645;-66
2023/10/16 07:28:22;;;;;;;1.83;1.70;;;17.10;95.50;;;17.19;nan;101312.16;4907828;29;20670;-64
2023/10/16 07:30:50;;;;;;;2.87;2.67;;;17.30;94.30;;;17.05;nan;101316.88;4909101;29;20653;-67
2023/10/16 07:33:20;;;;;;;2.50;2.30;;;17.40;93.90;;;16.80;nan;101312.06;4908390;29;20646;-67
2023/10/16 07:35:49;;;;;;;2.23;2.03;;;17.20;93.60;;;16.82;nan;101319.84;4910149;29;20680;-66
2023/10/16 07:38:20;;;;;;;1.83;1.70;;;17.10;93.70;;;16.70;nan;101324.38;4908683;29;20665;-64
2023/10/16 07:40:56;;;;;;;3.20;1.33;;;17.00;93.60;;;16.33;nan;101313.50;4909841;29;20650;-65
2023/10/16 07:43:28;;;;;;;2.30;2.10;;;16.70;93.80;;;15.89;nan;101312.94;4925151;29;21185;-66
2023/10/16 07:48:35;;;;;;;2.70;2.60;;;15.90;94.60;;;15.58;nan;101309.38;4910357;29;20681;-66
2023/10/16 07:51:06;;;;;;;2.37;2.17;;;15.80;94.90;;;16.03;nan;101316.09;4910577;29;20648;-66
2023/10/16 07:53:35;;;;;;;3.10;2.80;;;16.10;95.00;;;16.67;nan;101311.47;4912348;29;20735;-66
2023/10/16 07:56:03;;;;;;;4.60;2.40;;;16.70;94.40;;;17.53;nan;101316.97;4910037;29;20682;-66
2023/10/16 07:58:33;;;;;;;3.27;2.97;;;17.40;93.50;;;17.97;nan;101322.66;4909410;29;20661;-66
2023/10/16 08:03:36;;;;;;;3.83;3.43;;;18.00;91.70;;;17.57;nan;101312.22;4911343;29;20669;-66
2023/10/16 08:06:11;;;;;;;3.00;2.70;;;17.70;91.70;;;17.45;nan;101308.03;4913564;29;21199;-67
2023/10/16 08:08:39;;;;;;;5.90;2.93;;;17.50;91.80;;;17.61;nan;101316.28;4910311;29;20676;-66
2023/10/16 08:11:18;;;;;;;5.80;3.30;;;17.50;92.20;;;17.76;nan;101317.50;4914667;29;21036;-67
2023/10/16 08:13:51;;;;;;;5.93;2.30;;;17.70;91.70;;;17.69;nan;101316.41;4910106;29;21256;-66
2023/10/16 08:16:21;;;;;;;4.03;2.43;;;17.70;91.60;;;17.73;nan;101316.00;4929099;29;20756;-68
2023/10/16 08:18:53;;;;;;;3.10;2.53;;;17.80;91.90;;;18.36;nan;101325.06;4926211;29;20670;-67
2023/10/16 08:21:26;;;;;;;1.87;1.77;;;18.40;91.30;;;19.31;nan;101329.06;4912600;29;20652;-67
2023/10/16 08:23:59;;;;;;;0.90;0.90;;;19.40;89.70;;;19.97;nan;101329.56;4925884;29;21055;-67
2023/10/16 08:26:28;;;;;;;2.17;1.97;;;20.20;86.40;;;20.10;nan;101323.88;4913409;29;20640;-67
2023/10/16 08:29:11;;;;;;;3.87;2.80;;;20.50;84.40;;;20.41;nan;101329.53;4912102;29;20696;-67
2023/10/16 08:32:43;;;;;;;3.50;2.60;;;20.70;83.50;;;21.08;nan;101326.91;4908997;29;21342;-66
2023/10/16 08:34:40;;;;;;;3.80;2.83;;;21.30;81.40;;;21.89;nan;101324.41;4905643;29;20684;-66
2023/10/16 08:37:11;;;;;;;2.23;2.10;;;22.00;79.10;;;22.58;nan;101321.94;4910912;29;20646;-66
2023/10/16 08:39:47;;;;;;;5.77;3.70;;;22.70;76.60;;;23.23;nan;101311.88;4906836;29;20665;-66
2023/10/16 08:44:51;;;;;;;4.50;3.37;;;23.90;71.30;;;23.84;nan;101324.28;4910346;29;20656;-67
2023/10/16 08:47:26;;;;;;;4.37;3.80;;;24.10;69.30;;;24.16;nan;101318.69;4913129;29;20633;-66
2023/10/16 08:49:55;;;;;;;2.60;2.40;;;24.40;68.30;;;24.32;nan;101321.16;4910371;29;21057;-67
2023/10/16 08:52:34;;;;;;;3.83;3.40;;;24.50;66.90;;;24.24;nan;101318.59;4912961;29;20649;-67
2023/10/16 08:55:15;;;;;;;3.67;3.13;;;24.50;66.00;;;24.54;nan;101320.25;4909109;29;20683;-67
2023/10/16 08:57:45;;;;;;;7.27;5.20;;;24.70;65.50;;;24.64;nan;101314.63;4911482;29;20668;-67
2023/10/16 09:00:19;;;;;;;4.20;3.83;;;24.90;64.50;;;25.22;nan;101313.75;4906738;29;20662;-67
2023/10/16 09:02:53;;;;;;;4.13;3.87;;;25.40;63.50;;;26.09;nan;101321.41;4910426;29;22104;-67
2023/10/16 09:05:23;;;;;;;6.13;5.77;;;26.20;62.50;;;26.76;nan;101318.97;4911048;29;20660;-66
2023/10/16 09:07:51;;;;;;;69.40;64.83;;;27.00;59.80;;;27.29;nan;101322.66;4912367;29;20649;-68
2023/10/16 09:10:21;;;;;;;47.60;44.47;;;27.60;58.90;;;27.54;nan;101313.03;4910604;29;20660;-67
2023/10/16 09:13:04;;;;;;;121.87;114.47;;;28.00;57.50;;;27.98;nan;101311.66;4927437;29;20637;-66
2023/10/16 09:15:31;;;;;;;209.87;196.87;;;28.40;56.60;;;28.11;nan;101306.28;4920939;29;20740;-66
2023/10/16 09:17:58;;;;;;;26.47;24.90;;;28.60;54.90;;;28.31;nan;101304.38;4912518;29;20638;-66
2023/10/16 09:20:40;;;;;;;2.77;2.57;;;28.70;54.60;;;28.66;nan;101312.97;4907017;29;20683;-66
2023/10/16 09:23:14;;;;;;;6.70;6.20;;;29.00;54.20;;;29.29;nan;101303.19;4910658;29;21204;-66
2023/10/16 09:25:45;;;;;;;3.20;2.87;;;29.40;53.60;;;29.68;nan;101305.63;4911483;29;20649;-66
2023/10/16 09:28:18;;;;;;;3.33;3.07;;;29.70;52.80;;;29.92;nan;101304.00;4901342;29;20670;-66
2023/10/16 09:30:47;;;;;;;3.27;2.83;;;29.80;52.40;;;29.75;nan;101292.97;4922415;29;21196;-67
2023/10/16 09:33:34;;;;;;;3.70;3.40;;;29.70;52.20;;;29.21;27.12;101298.91;5060248;28;20879;-64
2023/10/16 09:36:29;;;;;;;3.90;3.60;;;29.40;51.90;;;28.44;27.34;101298.97;5045381;28;20626;-66
2023/10/16 09:39:00;;;;;;;6.50;3.03;;;28.90;52.00;;;27.51;28.26;101297.34;5031997;28;20652;-66
2023/10/16 09:49:13;;;;;;;3.93;3.60;;;23.30;58.20;;;21.54;36.81;101283.03;5015574;28;20672;-66
2023/10/16 09:51:44;;;;;;;5.93;3.20;;;21.90;60.90;;;20.64;38.40;101273.16;5013688;28;20768;-65
2023/10/16 09:54:14;;;;;;;8.50;3.20;;;20.80;62.90;;;19.90;39.64;101270.25;5017921;28;20632;-65
2023/10/16 09:56:48;;;;;;;3.23;2.93;;;19.90;64.90;;;19.17;41.42;101265.25;5024830;28;21138;-66
2023/10/16 09:59:38;;;;;;;7.37;3.20;;;19.20;67.30;;;18.56;43.14;101267.72;5022357;28;20655;-63
2023/10/16 10:02:08;;;;;;;3.40;2.80;;;18.50;68.70;;;18.07;44.14;101268.84;5033468;28;20644;-65
2023/10/16 10:04:43;;;;;;;7.30;3.07;;;18.00;70.50;;;17.63;44.86;101265.00;5019576;28;20688;-65
2023/10/16 10:07:13;;;;;;;2.47;2.30;;;17.50;71.90;;;17.10;45.41;101262.91;5015895;28;20632;-63
2023/10/16 10:09:45;;;;;;;2.47;2.27;;;17.00;72.60;;;16.56;47.01;101256.25;5037958;28;20648;-65
2023/10/16 10:12:42;;;;;;;3.20;2.63;;;16.60;74.40;;;16.32;47.35;101263.59;5025204;28;20790;-65
2023/10/16 10:15:33;;;;;;;4.23;2.73;;;16.20;76.10;;;16.22;48.67;101260.09;5038717;28;20625;-64
2023/10/16 10:20:58;;;;;;;2.80;2.30;;;16.10;78.50;;;16.89;46.99;101255.06;5022078;28;20632;-65
2023/10/16 10:23:26;;;;;;;1.83;1.60;;;16.80;77.00;;;17.91;43.51;101258.03;5019348;28;20761;-63
2023/10/16 10:25:53;;;;;;;3.93;2.60;;;17.90;72.90;;;18.67;41.74;101251.69;5023812;28;21064;-64
2023/10/16 10:28:32;;;;;;;7.07;2.70;;;18.70;70.80;;;18.87;41.38;101257.69;5024114;28;21234;-67
2023/10/16 10:31:05;;;;;;;1.50;1.40;;;18.80;70.40;;;18.44;41.93;101251.22;5016161;28;20636;-65
2023/10/16 10:33:52;;;;;;;2.10;1.97;;;18.40;70.90;;;17.73;42.73;101247.38;5016788;28;21234;-66
2023/10/16 10:36:34;;;;;;;2.13;1.80;;;17.70;71.70;;;17.04;43.93;101244.00;5023651;28;20668;-66
2023/10/16 10:39:22;;;;;;;1.67;1.57;;;17.00;73.30;;;16.44;45.24;101244.09;5023561;28;21534;-66
2023/10/16 10:44:55;;;;;;;3.60;2.07;;;15.90;75.20;;;15.59;47.20;101232.13;5008552;28;20695;-66
2023/10/16 10:47:32;;;;;;;1.50;1.40;;;15.50;77.10;;;15.30;48.41;101233.69;5009320;28;20664;-66
2023/10/16 10:50:11;;;;;;;1.77;1.67;;;15.10;78.50;;;14.88;48.75;101224.88;5001616;28;20689;-65
2023/10/16 10:52:39;;;;;;;2.40;1.97;;;14.80;79.10;;;14.50;49.92;101214.78;5008643;28;20794;-65
2023/10/16 10:55:21;;;;;;;3.33;1.30;;;14.40;80.40;;;14.30;50.08;101215.50;5005071;28;20728;-64
2023/10/16 10:57:58;;;;;;;2.00;1.80;;;14.10;81.50;;;13.97;51.13;101211.03;5009379;28;20684;-65
2023/10/16 11:05:31;;;;;;;1.97;1.40;;;13.60;85.00;;;13.76;51.43;101199.56;5008059;28;20731;-66
2023/10/16 11:10:46;;;;;;;1.80;1.63;;;13.50;84.70;;;13.67;51.41;101175.84;5006410;28;20645;-65
2023/10/16 11:13:15;;;;;;;1.67;1.53;;;13.40;84.90;;;13.68;51.23;101177.50;4992148;28;20679;-65
2023/10/16 11:15:53;;;;;;;2.20;1.87;;;13.40;85.30;;;13.68;52.14;101183.59;5008272;28;20690;-64
2023/10/16 11:18:26;;;;;;;1.80;1.40;;;13.40;86.80;;;13.63;52.20;101171.78;4992130;28;20661;-64
2023/10/16 11:20:54;;;;;;;1.43;1.33;;;13.30;87.50;;;13.61;52.37;101177.13;5020375;28;20657;-64
2023/10/16 11:23:31;;;;;;;1.40;1.40;;;13.30;87.80;;;13.60;51.73;101164.16;5005367;28;20641;-65
2023/10/16 11:25:59;;;;;;;1.00;1.00;;;13.30;87.50;;;13.56;50.53;101170.56;4999228;28;20680;-64
2023/10/16 11:28:31;;;;;;;1.03;1.03;;;13.30;85.70;;;13.49;50.58;101161.50;4995316;28;21227;-63
2023/10/16 11:31:01;;;;;;;1.90;0.83;;;13.20;85.80;;;13.40;50.92;101159.56;5007368;28;21056;-65
2023/10/16 11:33:54;;;;;;;2.10;1.23;;;13.10;86.10;;;13.31;51.13;101153.22;5007129;28;20661;-65
2023/10/16 11:36:23;;;;;;;1.40;1.30;;;13.00;86.80;;;13.32;51.64;101148.81;5007183;28;20641;-65
2023/10/16 11:38:52;;;;;;;1.07;1.00;;;13.00;88.00;;;13.23;51.84;101142.50;5009333;28;20645;-65
2023/10/16 11:41:19;;;;;;;0.93;0.80;;;12.90;88.30;;;13.24;51.93;101141.56;4998335;28;20720;-65
2023/10/16 11:43:47;;;;;;;0.70;0.50;;;12.90;88.90;;;13.22;51.81;101141.66;5008310;28;20629;-64
2023/10/16 11:46:33;;;;;;;1.17;0.70;;;12.90;88.40;;;13.20;52.12;101134.88;5009579;28;20629;-66
2023/10/16 11:51:58;;;;;;;0.80;0.40;;;12.90;89.20;;;13.13;52.49;101128.41;4991358;28;20633;-66
2023/10/16 11:54:25;;;;;;;0.40;0.40;;;12.90;89.60;;;13.06;53.06;101124.56;5003164;28;21297;-66
2023/10/16 11:56:56;;;;;;;0.40;0.37;;;12.80;90.00;;;13.01;52.31;101118.81;5001668;28;20637;-66
2023/10/16 11:59:28;;;;;;;0.87;0.87;;;12.80;90.20;;;13.00;52.78;101112.75;5006381;28;20667;-66
2023/10/16 12:02:10;;;;;;;0.37;0.37;;;12.70;90.40;;;13.00;53.41;101120.59;5009044;28;20636;-64
2023/10/16 12:04:40;;;;;;;0.97;0.97;;;12.70;90.50;;;12.97;52.38;101106.88;4991566;28;21069;-65
2023/10/16 12:07:09;;;;;;;239.00;116.30;;;12.70;90.40;;;12.97;52.58;101101.63;5008655;28;21503;-64
2023/10/16 12:09:42;;;;;;;14.80;13.93;;;12.60;90.50;;;12.97;52.84;101102.47;5008697;28;20229;-64
2023/10/16 12:12:19;;;;;;;16.77;15.53;;;12.70;90.80;;;12.98;52.93;101096.31;5010828;28;20757;-64
2023/10/16 12:14:48;;;;;;;18.97;17.53;;;12.70;90.90;;;13.03;53.53;101091.53;5007649;28;20637;-64
2023/10/16 12:17:24;;;;;;;19.00;17.37;;;12.70;91.20;;;13.06;54.00;101086.13;5009606;28;20621;-64
2023/10/16 12:19:53;;;;;;;30.53;23.63;;;12.70;91.80;;;13.14;53.85;101093.38;5008465;28;20648;-65
2023/10/16 12:22:23;;;;;;;73.43;41.90;;;12.80;91.40;;;13.16;53.43;101081.03;5007193;28;20641;-64
2023/10/16 12:24:50;;;;;;;57.77;40.33;;;12.80;91.80;;;13.21;53.21;101076.25;5009420;28;20702;-65
2023/10/16 12:27:17;;;;;;;78.20;49.23;;;12.90;91.40;;;13.24;53.23;101070.81;5006817;28;20649;-64
2023/10/16 12:29:44;;;;;;;43.90;33.57;;;12.90;91.40;;;13.27;52.61;101067.13;5006833;28;20665;-64
2023/10/16 12:32:12;;;;;;;75.50;45.80;;;12.90;90.90;;;13.28;52.63;101055.66;5009263;28;20669;-65
2023/10/16 12:34:41;;;;;;;22.40;19.53;;;12.90;91.00;;;13.31;52.56;101058.06;5003528;28;20645;-64
2023/10/16 12:37:08;;;;;;;55.23;38.80;;;12.90;91.10;;;13.32;53.22;101055.31;5006106;28;20646;-64
2023/10/16 12:39:45;;;;;;;70.97;45.37;;;13.00;91.50;;;13.37;52.89;101057.59;5007374;28;20648;-64
2023/10/16 12:42:13;;;;;;;148.53;59.27;;;13.00;91.40;;;13.38;52.95;101046.97;5007351;28;20660;-65
2023/10/16 12:44:41;;;;;;;140.90;57.67;;;13.10;91.40;;;13.34;52.76;101035.06;5006568;28;20641;-64
2023/10/16 12:47:08;;;;;;;0.50;0.50;;;13.00;91.20;;;13.35;52.40;101039.38;5006343;28;20729;-64
2023/10/16 12:49:35;;;;;;;2.20;1.17;;;13.00;91.30;;;13.36;52.93;101041.03;5004207;28;20672;-65
2023/10/16 12:52:02;;;;;;;1.23;1.17;;;13.00;91.50;;;13.36;53.36;101038.41;5004292;28;20625;-64
2023/10/16 12:54:29;;;;;;;4.10;1.40;;;13.00;91.90;;;13.38;53.67;101036.50;5007844;28;20645;-64
2023/10/16 12:56:57;;;;;;;0.50;0.50;;;13.00;92.10;;;13.37;53.08;101032.22;5006172;28;20637;-65
2023/10/16 12:59:27;;;;;;;1.80;1.03;;;13.00;91.90;;;13.35;51.71;101028.88;5000173;28;21250;-64
2023/10/16 13:01:54;;;;;;;0.50;0.50;;;13.00;91.20;;;13.38;52.07;101022.56;5008233;28;20637;-64
2023/10/16 13:04:24;;;;;;;0.70;0.70;;;13.00;91.50;;;13.42;52.42;101029.22;4999112;28;20645;-65